Time;durP1;ratioP1;P1;durP2;ratioP2;P2;SDS_P1;SDS_P2;PMS_P1;PMS_P2;Temp;Humidity;BMP_temperature;BMP_pressure;BME280_temperature;BME280_humidity;BME280_pressure;Samples;Min_cycle;Max_cycle;Signal;HPM_P1;HPM_P2
2024/04/26 00:01:28;;;;;;;;;;;;;;;19.51;48.67;100116.71;103183;1289;62780;-81
2024/04/26 00:03:54;;;;;;;;;;;;;;;19.51;48.65;100116.17;103255;1286;62778;-80
2024/04/26 00:06:19;;;;;;;;;;;;;;;19.50;48.70;100116.20;103260;1291;62188;-81
2024/04/26 00:08:45;;;;;;;;;;;;;;;19.50;48.65;100118.37;103139;1286;62105;-79
2024/04/26 00:11:11;;;;;;;;;;;;;;;19.50;48.75;100118.00;103190;1292;62860;-80
2024/04/26 00:13:36;;;;;;;;;;;;;;;19.50;48.67;100121.02;103210;1291;62159;-82
2024/04/26 00:16:02;;;;;;;;;;;;;;;19.50;48.55;100122.14;103202;1291;62274;-82
2024/04/26 00:18:29;;;;;;;;;;;;;;;19.51;48.65;100124.74;103421;1285;63411;-79
2024/04/26 00:20:55;;;;;;;;;;;;;;;19.50;48.56;100126.77;103280;1291;62195;-79
2024/04/26 00:23:21;;;;;;;;;;;;;;;19.50;48.81;100131.05;103107;1292;62237;-81
2024/04/26 00:25:46;;;;;;;;;;;;;;;19.50;48.55;100136.59;103181;1291;63455;-81
2024/04/26 00:28:12;;;;;;;;;;;;;;;19.50;48.63;100135.33;103279;1286;63378;-79
2024/04/26 00:30:37;;;;;;;;;;;;;;;19.49;48.60;100131.09;103107;1292;72233;-81
2024/04/26 00:33:05;;;;;;;;;;;;;;;19.50;48.58;100136.58;103252;1285;63446;-79
2024/04/26 00:35:30;;;;;;;;;;;;;;;19.49;48.47;100135.21;103207;1286;62169;-80
2024/04/26 00:37:56;;;;;;;;;;;;;;;19.50;48.51;100141.02;103192;1292;62202;-80
2024/04/26 00:40:22;;;;;;;;;;;;;;;19.49;48.55;100141.61;103212;1286;62194;-80
2024/04/26 00:42:47;;;;;;;;;;;;;;;19.49;48.65;100143.95;103186;1291;62255;-79
2024/04/26 00:45:13;;;;;;;;;;;;;;;19.48;48.59;100140.43;103174;1291;63401;-79
2024/04/26 00:47:38;;;;;;;;;;;;;;;19.49;48.50;100140.42;103139;1292;62249;-81
2024/04/26 00:50:04;;;;;;;;;;;;;;;19.49;48.61;100142.04;103238;1286;62173;-79
2024/04/26 00:52:33;;;;;;;;;;;;;;;19.49;48.49;100143.07;103252;1291;72471;-79
2024/04/26 00:54:59;;;;;;;;;;;;;;;19.48;48.46;100141.00;103165;1292;62185;-80
2024/04/26 00:57:24;;;;;;;;;;;;;;;19.48;48.45;100130.80;103125;1291;62223;-81
2024/04/26 00:59:50;;;;;;;;;;;;;;;19.48;48.59;100136.70;103159;1292;62198;-81
2024/04/26 01:02:16;;;;;;;;;;;;;;;19.48;48.60;100134.58;103209;1286;62210;-80
2024/04/26 01:04:43;;;;;;;;;;;;;;;19.48;48.53;100134.96;103251;1285;62667;-80
2024/04/26 01:07:09;;;;;;;;;;;;;;;19.48;48.59;100137.27;103219;1287;75223;-82
2024/04/26 01:09:35;;;;;;;;;;;;;;;19.48;48.47;100138.86;103214;1292;62162;-79
2024/04/26 01:12:01;;;;;;;;;;;;;;;19.48;48.45;100138.66;103157;1291;69878;-79
2024/04/26 01:14:27;;;;;;;;;;;;;;;19.48;48.64;100144.27;103170;1286;63376;-81
2024/04/26 01:16:53;;;;;;;;;;;;;;;19.48;48.49;100147.45;103185;1286;62140;-79
2024/04/26 01:19:18;;;;;;;;;;;;;;;19.48;48.55;100153.17;103289;1291;62106;-80
2024/04/26 01:21:44;;;;;;;;;;;;;;;19.48;48.47;100155.14;103123;1291;62124;-79
2024/04/26 01:24:11;;;;;;;;;;;;;;;19.48;48.38;100160.32;103161;1285;62280;-80
2024/04/26 01:26:37;;;;;;;;;;;;;;;19.48;48.38;100160.49;103213;1290;62187;-80
2024/04/26 01:29:02;;;;;;;;;;;;;;;19.47;48.33;100160.31;103206;1286;62232;-79
2024/04/26 01:31:28;;;;;;;;;;;;;;;19.47;48.45;100163.73;103155;1292;62255;-80
2024/04/26 01:33:54;;;;;;;;;;;;;;;19.47;48.40;100162.48;103305;1291;62620;-81
2024/04/26 01:36:19;;;;;;;;;;;;;;;19.47;48.37;100164.64;103245;1286;62187;-81
2024/04/26 01:38:46;;;;;;;;;;;;;;;19.47;48.41;100163.41;103232;1286;71825;-80
2024/04/26 01:41:11;;;;;;;;;;;;;;;19.47;48.32;100167.66;103194;1291;63375;-82
2024/04/26 01:43:37;;;;;;;;;;;;;;;19.47;48.31;100167.31;103196;1285;62277;-80
2024/04/26 01:46:02;;;;;;;;;;;;;;;19.47;48.34;100168.41;103275;1292;62137;-80
2024/04/26 01:48:28;;;;;;;;;;;;;;;19.47;48.24;100171.27;103191;1291;62798;-79
2024/04/26 01:50:54;;;;;;;;;;;;;;;19.46;48.30;100174.31;103251;1291;62190;-79
2024/04/26 01:53:19;;;;;;;;;;;;;;;19.47;48.36;100171.42;103186;1291;62161;-81
2024/04/26 01:55:45;;;;;;;;;;;;;;;19.47;48.46;100175.20;103293;1291;62201;-80
2024/04/26 01:58:11;;;;;;;;;;;;;;;19.46;48.42;100178.98;103152;1292;62241;-81
2024/04/26 02:00:37;;;;;;;;;;;;;;;19.46;48.33;100178.42;103204;1299;62207;-80
2024/04/26 02:03:02;;;;;;;;;;;;;;;19.46;48.28;100179.85;103269;1286;63331;-81
2024/04/26 02:05:28;;;;;;;;;;;;;;;19.46;48.26;100182.02;103180;1291;62230;-81
2024/04/26 02:07:53;;;;;;;;;;;;;;;19.46;48.21;100181.16;103130;1292;62278;-79
2024/04/26 02:10:19;;;;;;;;;;;;;;;19.46;48.23;100182.40;103321;1292;62141;-81
2024/04/26 02:12:46;;;;;;;;;;;;;;;19.46;48.19;100183.79;103145;1292;62193;-79
2024/04/26 02:15:13;;;;;;;;;;;;;;;19.46;48.14;100183.14;103222;1300;62207;-80
2024/04/26 02:17:38;;;;;;;;;;;;;;;19.46;48.28;100178.66;103243;1292;62513;-79
2024/04/26 02:20:05;;;;;;;;;;;;;;;19.45;48.13;100180.30;103186;1292;63398;-79
2024/04/26 02:22:31;;;;;;;;;;;;;;;19.46;48.29;100183.11;103213;1288;62219;-80
2024/04/26 02:24:56;;;;;;;;;;;;;;;19.45;48.15;100180.84;102712;1299;741098;-80
2024/04/26 02:27:22;;;;;;;;;;;;;;;19.45;48.16;100181.36;103241;1286;63391;-80
2024/04/26 02:29:48;;;;;;;;;;;;;;;19.46;48.15;100182.40;103151;1286;62214;-80
2024/04/26 02:32:13;;;;;;;;;;;;;;;19.46;47.99;100187.73;103154;1291;62130;-79
2024/04/26 02:34:40;;;;;;;;;;;;;;;19.46;47.98;100189.20;103221;1292;62231;-79
2024/04/26 02:37:06;;;;;;;;;;;;;;;19.46;48.15;100192.77;103220;1291;63270;-80
2024/04/26 02:39:31;;;;;;;;;;;;;;;19.45;48.04;100195.64;103172;1292;62213;-80
2024/04/26 02:41:57;;;;;;;;;;;;;;;19.45;47.95;100199.05;103248;1292;62155;-79
2024/04/26 02:44:22;;;;;;;;;;;;;;;19.45;48.11;100200.48;103290;1292;62161;-80
2024/04/26 02:46:48;;;;;;;;;;;;;;;19.45;48.15;100203.52;103203;1288;72223;-80
2024/04/26 02:49:14;;;;;;;;;;;;;;;19.45;48.06;100207.78;103201;1286;63344;-79
2024/04/26 02:51:40;;;;;;;;;;;;;;;19.45;48.00;100209.23;103199;1286;62619;-81
2024/04/26 02:54:06;;;;;;;;;;;;;;;19.45;48.00;100212.97;103214;1291;62287;-79
2024/04/26 02:56:31;;;;;;;;;;;;;;;19.45;47.97;100213.68;103131;1300;62196;-81
2024/04/26 02:58:57;;;;;;;;;;;;;;;19.45;48.01;100216.73;103241;1295;62247;-80
2024/04/26 03:01:22;;;;;;;;;;;;;;;19.45;48.02;100218.52;103173;1287;75181;-81
2024/04/26 03:03:48;;;;;;;;;;;;;;;19.45;47.91;100222.29;103166;1291;62501;-79
2024/04/26 03:06:13;;;;;;;;;;;;;;;19.45;48.05;100223.88;103234;1287;63270;-80
2024/04/26 03:08:40;;;;;;;;;;;;;;;19.44;47.97;100230.51;103260;1292;62189;-80
2024/04/26 03:11:06;;;;;;;;;;;;;;;19.45;48.04;100230.84;103186;1292;62134;-80
2024/04/26 03:13:35;;;;;;;;;;;;;;;19.44;48.01;100236.39;103346;1286;72062;-79
2024/04/26 03:16:00;;;;;;;;;;;;;;;19.44;48.01;100242.84;103221;1291;62195;-82
2024/04/26 03:18:26;;;;;;;;;;;;;;;19.45;47.91;100247.45;103096;1292;62457;-79
2024/04/26 03:20:52;;;;;;;;;;;;;;;19.45;48.04;100253.34;103140;1290;63299;-81
2024/04/26 03:23:18;;;;;;;;;;;;;;;19.44;48.03;100258.69;103099;1289;63351;-81
2024/04/26 03:25:44;;;;;;;;;;;;;;;19.44;47.97;100261.73;103230;1292;62198;-80
2024/04/26 03:28:11;;;;;;;;;;;;;;;19.45;48.04;100263.14;103044;1294;62134;-81
2024/04/26 03:30:36;;;;;;;;;;;;;;;19.44;48.07;100266.38;103108;1292;73327;-80
2024/04/26 03:33:03;;;;;;;;;;;;;;;19.44;48.03;100273.88;103204;1292;62928;-80
2024/04/26 03:35:28;;;;;;;;;;;;;;;19.44;48.12;100276.02;103335;1292;62341;-80
2024/04/26 03:37:54;;;;;;;;;;;;;;;19.44;48.08;100279.06;103111;1289;62247;-80
2024/04/26 03:40:21;;;;;;;;;;;;;;;19.44;47.88;100282.27;103090;1292;62636;-79
2024/04/26 03:42:46;;;;;;;;;;;;;;;19.44;47.94;100290.66;103114;1289;63401;-80
2024/04/26 03:45:13;;;;;;;;;;;;;;;19.44;47.95;100293.33;103175;1290;63352;-80
2024/04/26 03:47:38;;;;;;;;;;;;;;;19.43;47.92;100294.98;103210;1292;62372;-81
2024/04/26 03:50:04;;;;;;;;;;;;;;;19.43;47.85;100296.95;103214;1291;62158;-79
2024/04/26 03:52:30;;;;;;;;;;;;;;;19.43;48.01;100301.23;103101;1293;62361;-81
2024/04/26 03:54:56;;;;;;;;;;;;;;;19.43;47.86;100304.42;103093;1289;62485;-79
2024/04/26 03:57:21;;;;;;;;;;;;;;;19.43;47.91;100305.49;103527;1287;62215;-79
2024/04/26 03:59:51;;;;;;;;;;;;;;;19.43;47.83;100307.16;103500;1286;62156;-82
2024/04/26 04:02:17;;;;;;;;;;;;;;;19.43;47.74;100310.34;103383;1291;62077;-80
2024/04/26 04:04:42;;;;;;;;;;;;;;;19.43;47.65;100312.81;103582;1291;62283;-80
2024/04/26 04:07:08;;;;;;;;;;;;;;;19.43;47.79;100315.88;103431;1291;63372;-79
2024/04/26 04:09:34;;;;;;;;;;;;;;;19.44;47.79;100318.86;103248;1292;62283;-80
2024/04/26 04:11:59;;;;;;;;;;;;;;;19.43;47.62;100321.56;103758;1285;62295;-80
2024/04/26 04:14:25;;;;;;;;;;;;;;;19.44;47.52;100324.75;103944;1289;62245;-77
2024/04/26 04:16:50;;;;;;;;;;;;;;;19.44;47.72;100330.81;103760;1287;62248;-80
2024/04/26 04:19:16;;;;;;;;;;;;;;;19.44;47.58;100332.23;103384;1287;63368;-80
2024/04/26 04:21:41;;;;;;;;;;;;;;;19.45;47.52;100332.73;103342;1291;62226;-80
2024/04/26 04:24:07;;;;;;;;;;;;;;;19.44;47.50;100332.41;103284;1290;62226;-80
2024/04/26 04:26:33;;;;;;;;;;;;;;;19.44;47.58;100335.42;103591;1288;62201;-80
2024/04/26 04:28:58;;;;;;;;;;;;;;;19.43;47.43;100337.82;103373;1292;75337;-81
2024/04/26 04:31:25;;;;;;;;;;;;;;;19.43;47.52;100338.40;103601;1286;62187;-81
2024/04/26 04:33:51;;;;;;;;;;;;;;;19.43;47.43;100342.66;103022;1295;62210;-80
2024/04/26 04:36:17;;;;;;;;;;;;;;;19.42;47.47;100344.48;103349;1291;62200;-80
2024/04/26 04:38:43;;;;;;;;;;;;;;;19.42;47.40;100346.80;103292;1292;62191;-79
2024/04/26 04:41:08;;;;;;;;;;;;;;;19.42;47.41;100356.84;103189;1289;63324;-81
2024/04/26 04:43:34;;;;;;;;;;;;;;;19.41;47.22;100365.11;103475;1291;62433;-79
2024/04/26 04:46:00;;;;;;;;;;;;;;;19.40;47.21;100370.17;103297;1291;62093;-81
2024/04/26 04:48:26;;;;;;;;;;;;;;;19.39;47.31;100376.65;103257;1285;62206;-80
2024/04/26 04:50:51;;;;;;;;;;;;;;;19.39;47.31;100379.02;103185;1285;62245;-79
2024/04/26 04:53:17;;;;;;;;;;;;;;;19.37;47.37;100381.79;103661;1286;62183;-79
2024/04/26 04:55:42;;;;;;;;;;;;;;;19.36;47.24;100384.05;103509;1291;62185;-78
2024/04/26 04:58:09;;;;;;;;;;;;;;;19.35;47.36;100386.98;103683;1291;62297;-80
2024/04/26 05:00:34;;;;;;;;;;;;;;;19.33;47.33;100389.25;103387;1286;72505;-80
2024/04/26 05:03:00;;;;;;;;;;;;;;;19.32;47.48;100396.14;103481;1291;63333;-78
2024/04/26 05:05:26;;;;;;;;;;;;;;;19.30;47.36;100399.24;103604;1286;62389;-79
2024/04/26 05:07:51;;;;;;;;;;;;;;;19.28;47.48;100401.36;103712;1285;62220;-80
2024/04/26 05:10:17;;;;;;;;;;;;;;;19.26;47.35;100406.27;104002;1286;62238;-80
2024/04/26 05:12:42;;;;;;;;;;;;;;;19.26;47.44;100411.09;103813;1291;72461;-78
2024/04/26 05:15:09;;;;;;;;;;;;;;;19.28;47.49;100418.33;103855;1286;62210;-79
2024/04/26 05:17:36;;;;;;;;;;;;;;;19.27;47.39;100417.11;103578;1292;63463;-79
2024/04/26 05:20:01;;;;;;;;;;;;;;;19.27;47.38;100424.08;103419;1285;62142;-80
2024/04/26 05:22:28;;;;;;;;;;;;;;;19.28;47.40;100426.36;103537;1291;62156;-79
2024/04/26 05:24:55;;;;;;;;;;;;;;;19.28;47.35;100429.41;103540;1290;62108;-79
2024/04/26 05:27:20;;;;;;;;;;;;;;;19.28;47.44;100430.83;103706;1286;62172;-81
2024/04/26 05:29:46;;;;;;;;;;;;;;;19.28;47.46;100436.02;103771;1290;62522;-80
2024/04/26 05:32:12;;;;;;;;;;;;;;;19.28;47.47;100438.69;103526;1288;62130;-80
2024/04/26 05:34:37;;;;;;;;;;;;;;;19.27;47.47;100443.70;103727;1291;62155;-80
2024/04/26 05:37:04;;;;;;;;;;;;;;;19.27;47.39;100452.27;103592;1291;62800;-80
2024/04/26 05:39:30;;;;;;;;;;;;;;;19.27;47.57;100452.80;103959;1289;62059;-78
2024/04/26 05:41:55;;;;;;;;;;;;;;;19.27;47.47;100452.09;103620;1285;62315;-78
2024/04/26 05:44:21;;;;;;;;;;;;;;;19.27;47.53;100451.74;103759;1285;62184;-79
2024/04/26 05:46:47;;;;;;;;;;;;;;;19.26;47.49;100453.42;103816;1292;62186;-79
2024/04/26 05:49:13;;;;;;;;;;;;;;;19.25;47.50;100458.64;104279;1286;62217;-78
2024/04/26 05:51:38;;;;;;;;;;;;;;;19.25;47.70;100463.83;104962;1287;62217;-78
2024/04/26 05:54:04;;;;;;;;;;;;;;;19.25;47.64;100466.28;104319;1286;63235;-79
2024/04/26 05:56:30;;;;;;;;;;;;;;;19.24;47.56;100467.09;104708;1285;62409;-79
2024/04/26 05:58:57;;;;;;;;;;;;;;;19.24;47.71;100467.63;104514;1291;62095;-81
2024/04/26 06:01:22;;;;;;;;;;;;;;;19.25;47.84;100474.02;104049;1286;62216;-79
2024/04/26 06:03:48;;;;;;;;;;;;;;;19.25;47.75;100475.80;103827;1285;62143;-80
2024/04/26 06:06:14;;;;;;;;;;;;;;;19.24;47.76;100482.23;104456;1285;62203;-79
2024/04/26 06:08:39;;;;;;;;;;;;;;;19.25;47.81;100483.65;104090;1288;72849;-79
2024/04/26 06:11:05;;;;;;;;;;;;;;;19.25;47.89;100488.79;104087;1285;62114;-80
2024/04/26 06:13:31;;;;;;;;;;;;;;;19.23;47.74;100491.77;104446;1286;62229;-78
2024/04/26 06:15:56;;;;;;;;;;;;;;;19.22;47.78;100493.27;104397;1285;62180;-78
2024/04/26 06:18:23;;;;;;;;;;;;;;;19.23;47.68;100492.89;104291;1285;64527;-78
2024/04/26 06:20:48;;;;;;;;;;;;;;;19.23;47.81;100494.09;104272;1286;62164;-78
2024/04/26 06:23:14;;;;;;;;;;;;;;;19.24;47.83;100492.25;103903;1286;75250;-79
2024/04/26 06:25:39;;;;;;;;;;;;;;;19.25;47.91;100497.20;104005;1288;62267;-79
2024/04/26 06:28:05;;;;;;;;;;;;;;;19.25;47.77;100498.40;104044;1285;62293;-81
2024/04/26 06:30:31;;;;;;;;;;;;;;;19.25;47.76;100499.65;104518;1286;62126;-80
2024/04/26 06:32:57;;;;;;;;;;;;;;;19.26;47.79;100503.55;104462;1288;62191;-80
2024/04/26 06:35:22;;;;;;;;;;;;;;;19.27;47.72;100503.48;104576;1289;63469;-80
2024/04/26 06:37:48;;;;;;;;;;;;;;;19.28;47.85;100506.09;104335;1286;62182;-80
2024/04/26 06:40:13;;;;;;;;;;;;;;;19.29;47.90;100507.10;104106;1285;62162;-79
2024/04/26 06:42:39;;;;;;;;;;;;;;;19.30;47.82;100507.92;104165;1285;62473;-80
2024/04/26 06:45:05;;;;;;;;;;;;;;;19.30;47.91;100511.64;104141;1286;62877;-79
2024/04/26 06:47:30;;;;;;;;;;;;;;;19.31;47.83;100512.54;103932;1286;62203;-81
2024/04/26 06:49:56;;;;;;;;;;;;;;;19.30;47.86;100515.56;104239;1291;62178;-79
2024/04/26 06:52:21;;;;;;;;;;;;;;;19.30;48.01;100518.79;104414;1286;64565;-79
2024/04/26 06:54:47;;;;;;;;;;;;;;;19.29;47.81;100521.73;104257;1286;62056;-79
2024/04/26 06:57:12;;;;;;;;;;;;;;;19.26;47.94;100522.95;104317;1286;62270;-79
2024/04/26 06:59:38;;;;;;;;;;;;;;;19.26;47.91;100522.61;104653;1288;62119;-80
2024/04/26 07:02:04;;;;;;;;;;;;;;;19.26;47.84;100523.86;104595;1285;62103;-81
2024/04/26 07:04:29;;;;;;;;;;;;;;;19.26;48.03;100530.31;104537;1285;62168;-79
2024/04/26 07:06:55;;;;;;;;;;;;;;;19.26;47.96;100529.61;104464;1285;62231;-80
2024/04/26 07:09:21;;;;;;;;;;;;;;;19.26;48.09;100530.81;104620;1285;62088;-80
2024/04/26 07:11:46;;;;;;;;;;;;;;;19.28;48.06;100532.17;104671;1288;62099;-80
2024/04/26 07:14:12;;;;;;;;;;;;;;;19.29;48.03;100534.07;104573;1288;60648;-79
2024/04/26 07:16:38;;;;;;;;;;;;;;;19.30;48.06;100535.25;104382;1286;63290;-80
2024/04/26 07:19:03;;;;;;;;;;;;;;;19.30;48.11;100540.59;104184;1289;62333;-77
2024/04/26 07:21:29;;;;;;;;;;;;;;;19.30;48.15;100545.38;104387;1291;62232;-79
2024/04/26 07:23:55;;;;;;;;;;;;;;;19.30;48.20;100545.55;103947;1285;62121;-80
2024/04/26 07:26:21;;;;;;;;;;;;;;;19.30;48.15;100546.08;104039;1285;62140;-80
2024/04/26 07:28:51;;;;;;;;;;;;;;;19.30;48.05;100547.71;104090;1286;62216;-79
2024/04/26 07:31:16;;;;;;;;;;;;;;;19.30;48.04;100551.11;105773;1285;62828;-81
2024/04/26 07:33:43;;;;;;;;;;;;;;;19.30;48.07;100548.82;103948;1288;62251;-79
2024/04/26 07:36:08;;;;;;;;;;;;;;;19.26;48.05;100551.86;103927;1285;62179;-79
2024/04/26 07:38:34;;;;;;;;;;;;;;;19.26;48.04;100553.14;103890;1290;62104;-79
2024/04/26 07:41:03;;;;;;;;;;;;;;;19.25;48.06;100557.64;103780;1286;62196;-81
2024/04/26 07:43:30;;;;;;;;;;;;;;;19.25;47.92;100561.02;103753;1285;62130;-80
2024/04/26 07:45:55;;;;;;;;;;;;;;;19.24;47.89;100570.01;103846;1286;62205;-79
2024/04/26 07:48:21;;;;;;;;;;;;;;;19.24;47.89;100573.80;103947;1286;62130;-80
2024/04/26 07:50:47;;;;;;;;;;;;;;;19.23;47.87;100578.48;103862;1289;62200;-80
2024/04/26 07:53:14;;;;;;;;;;;;;;;19.22;47.97;100578.55;103808;1285;62519;-80
2024/04/26 07:55:40;;;;;;;;;;;;;;;19.23;47.91;100582.64;103890;1288;62179;-81
2024/04/26 07:58:05;;;;;;;;;;;;;;;19.22;48.01;100585.36;103956;1285;62242;-78
2024/04/26 08:00:34;;;;;;;;;;;;;;;19.21;48.02;100588.08;104301;1286;62200;-80
2024/04/26 08:03:00;;;;;;;;;;;;;;;19.20;47.96;100589.94;104083;1286;75388;-79
2024/04/26 08:05:25;;;;;;;;;;;;;;;19.19;48.02;100595.17;104240;1285;60100;-80
2024/04/26 08:07:51;;;;;;;;;;;;;;;19.18;47.98;100598.61;104210;1286;62101;-79
2024/04/26 08:10:18;;;;;;;;;;;;;;;19.18;48.07;100602.34;104182;1285;61982;-79
2024/04/26 08:12:43;;;;;;;;;;;;;;;19.18;48.12;100602.58;104006;1286;62258;-79
2024/04/26 08:15:10;;;;;;;;;;;;;;;19.17;48.22;100607.27;104026;1285;63583;-81
2024/04/26 08:17:36;;;;;;;;;;;;;;;19.16;48.26;100610.02;104934;1286;62207;-79
2024/04/26 08:20:02;;;;;;;;;;;;;;;19.15;48.19;100611.72;104264;1286;62227;-79
2024/04/26 08:22:28;;;;;;;;;;;;;;;19.15;48.13;100614.59;103869;1285;72541;-79
2024/04/26 08:24:53;;;;;;;;;;;;;;;19.14;48.18;100618.16;104156;1289;62159;-78
2024/04/26 08:27:19;;;;;;;;;;;;;;;19.15;48.25;100624.53;104406;1284;63478;-81
2024/04/26 08:29:46;;;;;;;;;;;;;;;19.15;48.18;100620.77;104266;1285;62117;-80
2024/04/26 08:32:12;;;;;;;;;;;;;;;19.16;48.16;100623.42;104397;1284;62197;-80
2024/04/26 08:34:39;;;;;;;;;;;;;;;19.16;47.98;100622.70;104310;1286;62062;-79
2024/04/26 08:37:06;;;;;;;;;;;;;;;19.17;48.18;100623.16;104067;1289;63269;-80
2024/04/26 08:39:31;;;;;;;;;;;;;;;19.18;48.12;100630.05;104465;1285;62183;-80
2024/04/26 08:41:57;;;;;;;;;;;;;;;19.19;48.10;100631.95;104326;1286;62178;-80
2024/04/26 08:44:24;;;;;;;;;;;;;;;19.20;48.13;100629.91;104287;1285;63365;-79
2024/04/26 08:46:49;;;;;;;;;;;;;;;19.22;47.98;100628.89;104257;1286;62870;-81
2024/04/26 08:49:18;;;;;;;;;;;;;;;19.23;48.00;100634.69;104417;1286;62069;-79
2024/04/26 08:51:43;;;;;;;;;;;;;;;19.25;48.09;100636.52;104418;1290;62102;-80
2024/04/26 08:54:09;;;;;;;;;;;;;;;19.27;47.90;100634.11;104332;1285;62082;-81
2024/04/26 08:56:36;;;;;;;;;;;;;;;19.28;48.08;100633.83;104528;1286;62168;-80
2024/04/26 08:59:02;;;;;;;;;;;;;;;19.29;47.92;100640.04;104586;1286;62073;-80
2024/04/26 09:01:29;;;;;;;;;;;;;;;19.28;47.96;100639.73;104135;1286;62264;-80
2024/04/26 09:03:54;;;;;;;;;;;;;;;19.28;48.05;100642.63;104239;1287;63298;-80
2024/04/26 09:06:20;;;;;;;;;;;;;;;19.28;47.94;100641.71;104085;1288;62422;-80
2024/04/26 09:08:46;;;;;;;;;;;;;;;19.28;47.89;100644.56;104532;1285;62228;-78
2024/04/26 09:11:17;;;;;;;;;;;;;;;19.29;47.93;100645.95;104379;1286;62277;-82
2024/04/26 09:13:42;;;;;;;;;;;;;;;19.27;48.16;100646.57;104179;1286;62140;-79
2024/04/26 09:16:09;;;;;;;;;;;;;;;19.29;48.07;100649.86;104470;1288;60343;-79
2024/04/26 09:18:34;;;;;;;;;;;;;;;19.31;48.28;100644.00;104387;1286;62631;-79
2024/04/26 09:21:02;;;;;;;;;;;;;;;19.32;48.30;100642.84;104032;1285;62105;-79
2024/04/26 09:23:28;;;;;;;;;;;;;;;19.35;48.57;100644.28;104112;1286;62254;-79
2024/04/26 09:26:03;;;;;;;;;;;;;;;19.36;48.64;100641.70;104004;1286;62124;-79
2024/04/26 09:28:29;;;;;;;;;;;;;;;19.37;48.62;100637.89;104085;1285;74206;-80
2024/04/26 09:30:56;;;;;;;;;;;;;;;19.38;48.64;100641.40;104020;1284;62123;-83
2024/04/26 09:33:21;;;;;;;;;;;;;;;19.38;48.75;100640.52;103716;1285;62274;-81
2024/04/26 09:35:51;;;;;;;;;;;;;;;19.38;48.70;100638.88;103614;1286;62184;-80
2024/04/26 09:38:19;;;;;;;;;;;;;;;19.38;48.79;100638.33;103856;1285;75106;-82
2024/04/26 09:40:46;;;;;;;;;;;;;;;19.38;48.60;100637.29;103747;1288;62145;-80
2024/04/26 09:43:12;;;;;;;;;;;;;;;19.39;48.66;100638.85;103532;1286;62313;-79
2024/04/26 09:45:37;;;;;;;;;;;;;;;19.38;48.65;100641.04;104089;1286;62195;-79
2024/04/26 09:48:04;;;;;;;;;;;;;;;19.37;48.83;100640.90;103651;1286;62197;-81
2024/04/26 09:50:30;;;;;;;;;;;;;;;19.38;48.64;100644.42;104063;1286;62286;-81
2024/04/26 09:52:55;;;;;;;;;;;;;;;19.38;48.62;100646.39;103968;1285;62080;-78
2024/04/26 09:55:21;;;;;;;;;;;;;;;19.38;48.58;100647.09;104213;1286;62181;-79
2024/04/26 09:57:50;;;;;;;;;;;;;;;19.38;48.80;100649.94;104374;1285;62339;-79
2024/04/26 10:00:15;;;;;;;;;;;;;;;19.38;48.56;100650.46;104078;1284;75042;-79
2024/04/26 10:02:43;;;;;;;;;;;;;;;19.39;48.69;100651.34;103946;1285;62092;-79
2024/04/26 10:05:19;;;;;;;;;;;;;;;19.38;48.63;100655.64;103912;1288;62144;-80
2024/04/26 10:07:59;;;;;;;;;;;;;;;19.38;48.63;100657.26;103591;1285;72203;-80
2024/04/26 10:10:25;;;;;;;;;;;;;;;19.38;48.58;100660.83;103741;1286;75224;-81
2024/04/26 10:12:59;;;;;;;;;;;;;;;19.38;48.48;100657.99;103935;1286;62187;-81
2024/04/26 10:15:25;;;;;;;;;;;;;;;19.37;48.46;100657.36;104247;1285;62082;-81
2024/04/26 10:17:51;;;;;;;;;;;;;;;19.35;48.47;100656.93;104591;1285;62180;-81
2024/04/26 10:20:20;;;;;;;;;;;;;;;19.34;48.50;100663.04;104682;1286;62052;-82
2024/04/26 10:22:46;;;;;;;;;;;;;;;19.34;48.44;100664.70;104549;1286;62172;-80
2024/04/26 10:25:22;;;;;;;;;;;;;;;19.34;48.35;100665.56;104079;1285;62188;-80
2024/04/26 10:27:48;;;;;;;;;;;;;;;19.35;48.48;100665.32;104158;1288;72507;-81
2024/04/26 10:30:17;;;;;;;;;;;;;;;19.35;48.45;100667.11;103749;1286;62188;-79
2024/04/26 10:32:46;;;;;;;;;;;;;;;19.36;48.42;100666.36;103762;1285;62085;-80
2024/04/26 10:35:19;;;;;;;;;;;;;;;19.36;48.34;100670.60;103965;1285;62178;-79
2024/04/26 10:37:58;;;;;;;;;;;;;;;19.36;48.33;100669.71;103862;1288;72364;-79
2024/04/26 10:40:23;;;;;;;;;;;;;;;19.37;48.33;100671.99;103813;1286;76262;-80
2024/04/26 10:42:49;;;;;;;;;;;;;;;19.37;48.34;100673.36;104121;1286;62200;-79
2024/04/26 10:45:15;;;;;;;;;;;;;;;19.38;48.25;100672.46;103872;1286;62200;-80
2024/04/26 10:47:40;;;;;;;;;;;;;;;19.38;48.12;100669.22;103721;1286;63355;-80
2024/04/26 10:50:06;;;;;;;;;;;;;;;19.39;48.23;100672.02;103972;1285;62185;-80
2024/04/26 10:52:31;;;;;;;;;;;;;;;19.39;48.10;100668.42;103774;1287;62210;-80
2024/04/26 10:54:57;;;;;;;;;;;;;;;19.40;48.21;100663.40;103437;1292;62162;-79
2024/04/26 10:57:23;;;;;;;;;;;;;;;19.40;48.25;100665.52;103524;1288;62219;-79
2024/04/26 10:59:57;;;;;;;;;;;;;;;19.41;48.16;100670.28;103439;1288;62220;-80
2024/04/26 11:02:23;;;;;;;;;;;;;;;19.41;48.14;100665.27;103502;1293;75269;-80
2024/04/26 11:04:59;;;;;;;;;;;;;;;19.42;48.18;100668.97;103826;1288;62398;-80
2024/04/26 11:07:24;;;;;;;;;;;;;;;19.43;48.16;100666.60;105879;1291;60297;-77
2024/04/26 11:09:50;;;;;;;;;;;;;;;19.43;48.16;100668.71;103432;1288;62218;-80
2024/04/26 11:12:16;;;;;;;;;;;;;;;19.44;48.02;100670.80;103469;1289;62177;-81
2024/04/26 11:14:42;;;;;;;;;;;;;;;19.45;48.13;100669.86;103228;1288;62195;-79
2024/04/26 11:17:08;;;;;;;;;;;;;;;19.46;48.04;100669.27;103456;1289;62197;-80
2024/04/26 11:19:33;;;;;;;;;;;;;;;19.46;48.12;100673.50;103477;1291;66159;-79
2024/04/26 11:21:59;;;;;;;;;;;;;;;19.46;48.24;100676.20;103398;1289;72484;-80
2024/04/26 11:24:25;;;;;;;;;;;;;;;19.47;48.11;100672.40;103509;1293;62208;-79
2024/04/26 11:26:54;;;;;;;;;;;;;;;19.47;48.13;100674.34;103444;1290;62112;-79
2024/04/26 11:29:21;;;;;;;;;;;;;;;19.48;48.03;100676.81;103499;1289;62202;-80
2024/04/26 11:31:46;;;;;;;;;;;;;;;19.48;48.14;100676.80;103667;1288;64507;-79
2024/04/26 11:34:15;;;;;;;;;;;;;;;19.48;48.08;100676.79;103779;1285;62261;-80
2024/04/26 11:36:42;;;;;;;;;;;;;;;19.48;48.02;100676.59;103493;1284;63422;-82
2024/04/26 11:39:08;;;;;;;;;;;;;;;19.49;47.91;100678.85;103438;1286;62087;-80
2024/04/26 11:41:35;;;;;;;;;;;;;;;19.49;48.01;100677.77;103246;1291;73279;-80
2024/04/26 11:44:00;;;;;;;;;;;;;;;19.50;47.89;100681.10;103450;1286;62261;-80
2024/04/26 11:46:26;;;;;;;;;;;;;;;19.50;47.96;100686.46;103374;1286;62531;-80
2024/04/26 11:48:55;;;;;;;;;;;;;;;19.50;47.94;100683.04;103416;1286;62203;-80
2024/04/26 11:51:21;;;;;;;;;;;;;;;19.51;47.85;100683.92;103624;1285;62021;-80
2024/04/26 11:53:47;;;;;;;;;;;;;;;19.51;48.01;100682.30;103461;1286;62262;-80
2024/04/26 11:56:14;;;;;;;;;;;;;;;19.51;47.92;100686.58;103567;1289;63453;-80
2024/04/26 11:58:40;;;;;;;;;;;;;;;19.52;48.02;100686.89;103428;1286;63465;-81
2024/04/26 12:01:05;;;;;;;;;;;;;;;19.52;47.79;100687.41;103407;1290;62746;-82
2024/04/26 12:03:34;;;;;;;;;;;;;;;19.52;47.86;100691.11;103383;1286;62216;-80
2024/04/26 12:06:00;;;;;;;;;;;;;;;19.52;47.84;100689.86;103788;1288;62075;-80
2024/04/26 12:08:25;;;;;;;;;;;;;;;19.53;47.94;100685.90;103770;1286;62137;-80
2024/04/26 12:10:53;;;;;;;;;;;;;;;19.54;47.93;100679.08;103683;1285;62122;-81
2024/04/26 12:13:19;;;;;;;;;;;;;;;19.54;48.03;100682.45;103749;1288;62208;-79
2024/04/26 12:15:45;;;;;;;;;;;;;;;19.55;47.90;100683.98;103576;1286;63777;-80
2024/04/26 12:18:13;;;;;;;;;;;;;;;19.56;47.85;100689.27;103551;1286;62127;-79
2024/04/26 12:20:39;;;;;;;;;;;;;;;19.58;47.80;100695.95;103658;1286;62452;-80